Time;durP1;ratioP1;P1;durP2;ratioP2;P2;SDS_P1;SDS_P2;PMS_P1;PMS_P2;Temp;Humidity;BMP_temperature;BMP_pressure;BME280_temperature;BME280_humidity;BME280_pressure;Samples;Min_cycle;Max_cycle;Signal;HPM_P1;HPM_P2
2023/08/05 04:00:57;;;;;;;4.47;3.60;;;23.20;99.90;;;;;;6231166;28;86989;-67
2023/08/05 04:03:59;;;;;;;3.80;3.40;;;23.30;99.90;;;;;;6228167;28;88927;-68
2023/08/05 04:07:01;;;;;;;4.40;3.25;;;23.30;99.90;;;;;;6243488;28;89093;-68
2023/08/05 04:10:05;;;;;;;7.22;4.18;;;23.20;99.90;;;;;;6215967;28;89037;-68
2023/08/05 04:13:11;;;;;;;6.75;4.03;;;23.30;99.90;;;;;;6221349;28;89065;-68
2023/08/05 04:16:16;;;;;;;6.72;4.10;;;23.20;99.90;;;;;;6231495;28;88161;-68
2023/08/05 04:19:18;;;;;;;4.00;3.25;;;23.30;99.90;;;;;;6231799;28;89140;-68
2023/08/05 04:22:22;;;;;;;5.20;3.55;;;23.20;99.90;;;;;;6238473;28;89635;-69
2023/08/05 04:25:24;;;;;;;3.47;3.00;;;23.20;99.90;;;;;;6222178;28;88528;-68
2023/08/05 04:28:26;;;;;;;3.38;3.05;;;23.30;99.90;;;;;;6232110;28;88097;-68
2023/08/05 04:31:31;;;;;;;3.63;3.13;;;23.30;99.90;;;;;;6232247;28;89368;-68
2023/08/05 04:34:36;;;;;;;4.18;3.42;;;23.30;99.90;;;;;;6230547;28;89787;-68
2023/08/05 04:37:38;;;;;;;3.75;3.20;;;23.30;99.90;;;;;;6224993;28;87697;-68
2023/08/05 04:40:40;;;;;;;5.15;3.63;;;23.30;99.90;;;;;;6232745;28;89281;-68
2023/08/05 04:43:42;;;;;;;4.53;3.25;;;23.30;99.90;;;;;;6232073;28;89073;-68
2023/08/05 04:46:46;;;;;;;4.38;3.17;;;23.20;99.90;;;;;;6213471;28;89071;-68
2023/08/05 04:49:48;;;;;;;4.57;3.25;;;23.30;99.90;;;;;;6232496;28;88990;-69
2023/08/05 04:52:50;;;;;;;4.70;3.45;;;23.30;99.90;;;;;;6222704;28;89021;-69
2023/08/05 04:55:52;;;;;;;4.25;3.20;;;23.20;99.90;;;;;;6235911;27;88321;-68
2023/08/05 04:58:54;;;;;;;3.58;3.08;;;23.20;99.90;;;;;;6221051;28;89043;-68
2023/08/05 05:01:57;;;;;;;3.67;2.97;;;23.20;99.90;;;;;;6241988;28;89077;-68
2023/08/05 05:04:59;;;;;;;3.40;3.10;;;23.20;99.90;;;;;;6244934;27;90027;-68
2023/08/05 05:08:01;;;;;;;3.85;3.08;;;23.20;99.90;;;;;;6246318;28;89058;-68
2023/08/05 05:11:03;;;;;;;4.40;3.30;;;23.20;99.90;;;;;;6230319;28;89007;-68
2023/08/05 05:14:06;;;;;;;3.45;2.78;;;23.20;99.90;;;;;;6243811;28;89381;-68
2023/08/05 05:17:09;;;;;;;7.15;3.95;;;23.20;99.90;;;;;;6223503;28;89355;-69
2023/08/05 05:20:12;;;;;;;3.22;2.60;;;23.20;99.90;;;;;;6230341;28;89461;-68
2023/08/05 05:23:14;;;;;;;4.88;3.33;;;23.20;99.90;;;;;;6231040;28;89011;-68
2023/08/05 05:26:16;;;;;;;3.38;2.85;;;23.20;99.90;;;;;;6243385;27;88811;-68
2023/08/05 05:29:19;;;;;;;3.00;2.70;;;23.20;99.90;;;;;;6211331;27;89224;-68
2023/08/05 05:32:23;;;;;;;3.03;2.80;;;23.20;99.90;;;;;;6231753;28;89030;-68
2023/08/05 05:35:25;;;;;;;3.72;3.00;;;23.20;99.90;;;;;;6231141;28;90043;-68
2023/08/05 05:38:27;;;;;;;4.75;3.28;;;23.20;99.90;;;;;;6230842;28;88997;-68
2023/08/05 05:41:29;;;;;;;4.40;3.45;;;23.20;99.90;;;;;;6221317;28;89024;-68
2023/08/05 05:44:31;;;;;;;6.65;4.13;;;23.20;99.90;;;;;;6239685;27;89550;-68
2023/08/05 05:47:34;;;;;;;4.38;3.08;;;23.20;99.90;;;;;;6231463;28;89081;-66
2023/08/05 05:50:40;;;;;;;4.20;3.10;;;23.20;99.90;;;;;;6231631;28;89351;-66
2023/08/05 05:53:42;;;;;;;3.80;3.22;;;23.20;99.90;;;;;;6231184;28;89089;-66
2023/08/05 05:56:44;;;;;;;4.63;3.03;;;23.20;99.90;;;;;;6226947;28;88631;-67
2023/08/05 05:59:46;;;;;;;3.90;3.50;;;23.20;99.90;;;;;;6243083;28;89163;-66
2023/08/05 06:02:50;;;;;;;6.05;3.25;;;23.20;99.90;;;;;;6229563;28;88979;-66
2023/08/05 06:05:52;;;;;;;4.43;3.20;;;23.20;99.90;;;;;;6230084;28;89911;-66
2023/08/05 06:08:54;;;;;;;5.05;3.58;;;23.20;99.90;;;;;;6229322;28;89072;-66
2023/08/05 06:11:56;;;;;;;6.10;3.70;;;23.20;99.90;;;;;;6231088;28;89059;-67
2023/08/05 06:14:58;;;;;;;5.60;3.50;;;23.20;99.90;;;;;;6229285;28;88848;-66
2023/08/05 06:18:01;;;;;;;4.28;3.25;;;23.20;99.90;;;;;;6218150;28;89114;-68
2023/08/05 06:21:04;;;;;;;4.82;3.63;;;23.20;99.90;;;;;;6223957;28;89283;-67
2023/08/05 06:24:06;;;;;;;5.50;3.30;;;23.20;99.90;;;;;;6229880;28;89216;-66
2023/08/05 06:27:08;;;;;;;5.25;3.38;;;23.20;99.90;;;;;;6227401;28;88383;-66
2023/08/05 06:30:11;;;;;;;5.30;3.50;;;23.20;99.90;;;;;;6225227;28;88847;-66
2023/08/05 06:33:15;;;;;;;4.63;3.20;;;23.20;99.90;;;;;;6222812;28;88977;-66
2023/08/05 06:36:17;;;;;;;6.32;3.55;;;23.20;99.90;;;;;;6233139;28;92249;-67
2023/08/05 06:39:19;;;;;;;4.53;3.58;;;23.30;99.90;;;;;;6227093;28;89039;-66
2023/08/05 06:42:23;;;;;;;3.45;2.78;;;23.30;99.90;;;;;;6217382;28;89146;-67
2023/08/05 06:45:25;;;;;;;5.00;3.40;;;23.30;99.90;;;;;;6226421;28;89167;-67
2023/08/05 06:48:28;;;;;;;4.38;3.20;;;23.30;99.90;;;;;;6233686;28;89074;-68
2023/08/05 06:51:31;;;;;;;4.22;2.80;;;23.30;99.90;;;;;;6229359;28;88301;-68
2023/08/05 06:54:34;;;;;;;5.50;3.28;;;23.30;99.90;;;;;;6230028;28;89172;-67
2023/08/05 06:57:36;;;;;;;5.97;3.45;;;23.30;99.90;;;;;;6220875;28;88456;-68
2023/08/05 07:00:38;;;;;;;4.68;3.30;;;23.30;99.90;;;;;;6221194;28;89044;-68
2023/08/05 07:03:42;;;;;;;4.28;3.20;;;23.30;99.90;;;;;;6218127;28;89013;-68
2023/08/05 07:06:44;;;;;;;4.82;3.35;;;23.30;99.90;;;;;;6231075;28;90281;-67
2023/08/05 07:09:47;;;;;;;3.47;2.90;;;23.30;99.90;;;;;;6235032;28;89003;-67
2023/08/05 07:12:49;;;;;;;3.60;3.03;;;23.30;99.90;;;;;;6228996;28;89434;-67
2023/08/05 07:15:50;;;;;;;4.00;2.78;;;23.30;99.90;;;;;;6224612;28;89152;-68
2023/08/05 07:18:54;;;;;;;7.75;4.03;;;23.30;99.90;;;;;;6230251;28;88387;-67
2023/08/05 07:21:56;;;;;;;7.53;3.97;;;23.30;99.90;;;;;;6242637;27;87958;-68
2023/08/05 07:24:58;;;;;;;4.45;3.17;;;23.30;99.90;;;;;;6224448;28;89066;-67
2023/08/05 07:28:00;;;;;;;4.68;3.10;;;23.30;99.90;;;;;;6235006;28;88381;-68
2023/08/05 07:31:03;;;;;;;4.63;3.35;;;23.20;99.90;;;;;;6233310;28;89011;-67
2023/08/05 07:34:08;;;;;;;3.47;3.05;;;23.30;99.90;;;;;;6227143;28;89148;-67
2023/08/05 07:37:13;;;;;;;3.30;2.90;;;23.30;99.90;;;;;;6236328;28;91625;-68
2023/08/05 07:40:15;;;;;;;4.45;3.33;;;23.30;99.90;;;;;;6196294;28;89155;-68
2023/08/05 07:43:21;;;;;;;3.63;3.00;;;23.30;99.90;;;;;;6229370;28;87983;-68
2023/08/05 07:46:24;;;;;;;3.20;2.90;;;23.30;99.90;;;;;;6229061;28;88679;-66
2023/08/05 07:49:27;;;;;;;5.45;3.60;;;23.20;99.90;;;;;;6252004;28;89065;-68
2023/08/05 07:52:29;;;;;;;4.13;3.08;;;23.30;99.90;;;;;;6224973;28;89020;-67
2023/08/05 07:55:33;;;;;;;4.63;2.85;;;23.30;99.90;;;;;;6225068;27;89153;-68
2023/08/05 07:58:36;;;;;;;4.20;3.05;;;23.30;99.90;;;;;;6234408;28;88331;-68
2023/08/05 08:01:42;;;;;;;5.13;3.00;;;23.30;99.90;;;;;;6228433;28;89010;-69
2023/08/05 08:04:48;;;;;;;3.85;3.38;;;23.30;99.90;;;;;;6232130;28;89114;-69
2023/08/05 08:07:50;;;;;;;3.63;2.97;;;23.30;99.90;;;;;;6239382;28;90011;-69
2023/08/05 08:10:52;;;;;;;5.82;3.50;;;23.30;99.90;;;;;;6241150;28;89404;-70
2023/08/05 08:13:54;;;;;;;3.55;3.17;;;23.30;99.90;;;;;;6229310;28;89350;-70
2023/08/05 08:16:56;;;;;;;3.35;2.92;;;23.30;99.90;;;;;;6227580;28;88977;-68
2023/08/05 08:19:59;;;;;;;3.28;2.95;;;23.30;99.90;;;;;;6253666;28;89036;-68
2023/08/05 08:23:01;;;;;;;4.05;3.20;;;23.30;99.90;;;;;;6241641;27;89171;-68
2023/08/05 08:26:03;;;;;;;5.35;3.00;;;23.30;99.90;;;;;;6236943;27;88679;-68
2023/08/05 08:29:05;;;;;;;7.38;3.25;;;23.30;99.90;;;;;;6223664;28;87238;-68
2023/08/05 08:32:08;;;;;;;4.28;3.10;;;23.30;99.90;;;;;;6240267;28;89159;-68
2023/08/05 08:35:11;;;;;;;6.55;3.83;;;23.30;99.90;;;;;;6249427;27;88838;-68
2023/08/05 08:38:13;;;;;;;3.92;3.10;;;23.30;99.90;;;;;;6243342;27;90389;-67
2023/08/05 08:41:15;;;;;;;6.78;3.90;;;23.30;99.90;;;;;;6241222;27;89202;-68
2023/08/05 08:44:18;;;;;;;3.85;3.42;;;23.30;99.90;;;;;;6236794;27;89375;-69
2023/08/05 08:47:21;;;;;;;3.80;3.22;;;23.30;99.90;;;;;;6230490;28;87974;-69
2023/08/05 08:50:25;;;;;;;3.47;3.17;;;23.30;99.90;;;;;;6234073;28;89036;-69
2023/08/05 08:53:27;;;;;;;4.88;3.25;;;23.30;99.90;;;;;;6252683;27;89372;-68
2023/08/05 08:56:31;;;;;;;4.97;3.30;;;23.30;99.90;;;;;;6235159;27;89203;-69
2023/08/05 08:59:33;;;;;;;5.38;3.45;;;23.30;99.90;;;;;;6232806;28;88279;-68
2023/08/05 09:02:36;;;;;;;4.35;3.20;;;23.30;99.90;;;;;;6229629;28;88916;-69
2023/08/05 09:05:44;;;;;;;4.30;3.22;;;23.30;99.90;;;;;;6243853;28;89030;-69
2023/08/05 09:08:47;;;;;;;5.10;3.47;;;23.30;99.90;;;;;;6228487;28;88196;-68
2023/08/05 09:11:49;;;;;;;3.75;3.30;;;23.30;99.90;;;;;;6231871;28;89044;-69
2023/08/05 09:14:54;;;;;;;5.10;3.20;;;23.30;99.90;;;;;;6241750;28;88966;-69
2023/08/05 09:17:57;;;;;;;3.60;3.10;;;23.30;99.90;;;;;;6234216;28;87838;-68
2023/08/05 09:21:02;;;;;;;3.60;3.20;;;23.30;99.90;;;;;;6223353;28;89102;-69
2023/08/05 09:24:04;;;;;;;4.57;3.15;;;23.30;99.90;;;;;;6237640;28;89122;-69
2023/08/05 09:27:07;;;;;;;5.03;3.47;;;23.30;99.90;;;;;;6237859;28;89437;-69
2023/08/05 09:30:16;;;;;;;6.20;3.53;;;23.30;99.90;;;;;;6243823;27;87951;-69
2023/08/05 09:33:18;;;;;;;6.32;3.63;;;23.30;99.90;;;;;;6230561;28;88980;-69
2023/08/05 09:36:24;;;;;;;4.30;3.30;;;23.30;99.90;;;;;;6240626;28;87954;-69
2023/08/05 09:39:44;;;;;;;5.07;3.70;;;23.30;99.90;;;;;;6237162;28;90032;-68
2023/08/05 09:42:48;;;;;;;3.83;3.03;;;23.30;99.90;;;;;;6240633;27;89396;-68
2023/08/05 09:45:50;;;;;;;4.63;3.42;;;23.30;99.90;;;;;;6229691;28;88958;-69
2023/08/05 09:48:54;;;;;;;4.72;3.28;;;23.30;99.90;;;;;;6242789;28;88992;-69
2023/08/05 09:51:58;;;;;;;5.28;3.17;;;23.30;99.90;;;;;;6231699;28;87963;-69
2023/08/05 09:55:04;;;;;;;3.67;3.22;;;23.30;99.90;;;;;;6244846;28;89046;-69
2023/08/05 09:58:07;;;;;;;3.40;3.10;;;23.30;99.90;;;;;;6235634;27;89358;-69
2023/08/05 10:01:11;;;;;;;3.63;3.17;;;23.30;99.90;;;;;;6237186;27;88341;-69
2023/08/05 10:04:16;;;;;;;3.58;3.22;;;23.30;99.90;;;;;;6240987;28;89006;-69
2023/08/05 10:07:20;;;;;;;4.97;3.42;;;23.30;99.90;;;;;;6231287;28;88990;-68
2023/08/05 10:10:22;;;;;;;5.85;3.92;;;23.30;99.90;;;;;;6233017;27;90014;-68
2023/08/05 10:13:25;;;;;;;5.35;3.65;;;23.30;99.90;;;;;;6235931;27;89024;-68
2023/08/05 10:16:27;;;;;;;4.43;3.60;;;23.30;99.90;;;;;;6219376;28;88987;-68
2023/08/05 10:19:31;;;;;;;5.28;3.47;;;23.30;99.90;;;;;;6233677;28;89044;-69
2023/08/05 10:22:34;;;;;;;5.40;3.60;;;23.30;99.90;;;;;;6226602;28;88295;-69
2023/08/05 10:25:41;;;;;;;5.03;4.10;;;23.30;99.90;;;;;;6230132;28;87888;-69
2023/08/05 10:28:43;;;;;;;5.10;3.72;;;23.30;99.90;;;;;;6234683;28;89330;-69
2023/08/05 10:31:49;;;;;;;4.75;3.80;;;23.30;99.90;;;;;;6239449;27;88434;-68
2023/08/05 10:35:24;;;;;;;6.63;4.20;;;23.30;99.90;;;;;;6252417;27;88979;-69
2023/08/05 10:38:27;;;;;;;4.47;3.72;;;23.30;99.90;;;;;;6234031;27;89013;-68
2023/08/05 10:41:36;;;;;;;6.72;4.40;;;23.30;99.90;;;;;;6238936;28;90216;-68
2023/08/05 10:44:38;;;;;;;8.40;5.07;;;23.30;99.90;;;;;;6240014;28;88663;-69
2023/08/05 10:47:48;;;;;;;5.55;4.38;;;23.30;99.90;;;;;;6233066;28;88996;-68
2023/08/05 10:50:50;;;;;;;8.82;4.70;;;23.30;99.90;;;;;;6230164;28;89126;-68
2023/08/05 10:54:01;;;;;;;6.72;4.10;;;23.30;99.90;;;;;;6235482;27;89125;-68
2023/08/05 10:57:27;;;;;;;5.32;4.13;;;23.30;99.90;;;;;;6247953;27;89492;-68
2023/08/05 11:00:39;;;;;;;5.32;4.05;;;23.30;99.90;;;;;;6229592;28;89157;-69
2023/08/05 11:03:42;;;;;;;4.75;4.30;;;23.30;99.90;;;;;;6232918;28;88493;-68
2023/08/05 11:06:44;;;;;;;5.53;4.53;;;23.30;99.90;;;;;;6231086;27;88941;-68
2023/08/05 11:09:49;;;;;;;5.28;4.63;;;23.30;99.90;;;;;;6220716;28;89063;-69
2023/08/05 11:12:55;;;;;;;7.07;5.15;;;23.30;99.90;;;;;;6225320;28;90294;-69
2023/08/05 11:16:08;;;;;;;5.50;4.90;;;23.30;99.90;;;;;;6239869;28;89128;-68
2023/08/05 11:19:11;;;;;;;6.82;5.32;;;23.30;99.90;;;;;;6231394;27;89093;-69
2023/08/05 11:22:13;;;;;;;7.50;5.20;;;23.30;99.90;;;;;;6229007;28;89469;-68
2023/08/05 11:25:19;;;;;;;8.35;5.13;;;23.30;99.90;;;;;;6229574;28;89085;-69
2023/08/05 11:28:21;;;;;;;8.50;5.32;;;23.30;99.90;;;;;;6228879;28;89025;-68
2023/08/05 11:31:25;;;;;;;8.82;6.40;;;23.40;99.90;;;;;;6239572;28;89345;-68
2023/08/05 11:34:45;;;;;;;7.63;6.00;;;23.40;99.90;;;;;;6239549;27;88457;-68
2023/08/05 11:37:47;;;;;;;9.88;5.70;;;23.40;99.90;;;;;;6229595;27;89045;-67
2023/08/05 11:40:53;;;;;;;9.75;5.95;;;23.50;99.90;;;;;;6237094;28;89003;-67
2023/08/05 11:43:55;;;;;;;10.07;6.20;;;23.50;99.90;;;;;;6225467;27;90061;-69
2023/08/05 11:47:03;;;;;;;8.43;5.72;;;23.50;99.90;;;;;;6214811;28;89101;-68
2023/08/05 11:50:06;;;;;;;10.00;5.65;;;23.50;99.90;;;;;;6247133;28;88749;-68
2023/08/05 11:53:08;;;;;;;8.65;5.80;;;23.50;99.90;;;;;;6237933;27;89391;-67
2023/08/05 11:56:12;;;;;;;8.07;5.82;;;23.50;99.90;;;;;;6244555;28;88681;-67
2023/08/05 11:59:14;;;;;;;10.60;6.45;;;23.50;99.90;;;;;;6247445;27;89143;-67
2023/08/05 12:02:17;;;;;;;6.93;5.30;;;23.50;99.90;;;;;;6222698;28;89144;-67
2023/08/05 12:05:20;;;;;;;7.70;5.53;;;23.50;99.90;;;;;;6240256;28;88317;-67
2023/08/05 12:08:39;;;;;;;7.97;5.78;;;23.50;99.90;;;;;;6244926;28;89109;-67
2023/08/05 12:11:47;;;;;;;8.18;6.10;;;23.50;99.90;;;;;;6232223;27;89088;-67
2023/08/05 12:14:49;;;;;;;12.88;6.82;;;23.50;99.90;;;;;;6246755;28;89961;-67
2023/08/05 12:17:53;;;;;;;7.65;5.72;;;23.50;99.90;;;;;;6231540;28;88826;-67
2023/08/05 12:20:54;;;;;;;10.75;6.00;;;23.50;99.90;;;;;;6233558;28;89012;-67
2023/08/05 12:23:59;;;;;;;9.75;6.50;;;23.40;99.90;;;;;;6236929;28;89036;-67
2023/08/05 12:27:38;;;;;;;9.80;6.25;;;23.40;99.90;;;;;;6235775;28;89079;-68
2023/08/05 12:30:40;;;;;;;9.68;6.57;;;23.50;99.90;;;;;;6240397;28;89129;-67
2023/08/05 12:33:42;;;;;;;9.73;6.05;;;23.40;99.90;;;;;;6230200;28;88993;-67
2023/08/05 12:36:44;;;;;;;8.30;6.20;;;23.40;99.90;;;;;;6230279;28;87286;-67
2023/08/05 12:39:46;;;;;;;12.40;6.97;;;23.40;99.90;;;;;;6230798;28;87884;-67
2023/08/05 12:42:50;;;;;;;9.48;6.40;;;23.40;99.90;;;;;;6219879;28;88337;-68
2023/08/05 12:45:52;;;;;;;12.10;6.15;;;23.40;99.90;;;;;;6228427;27;90097;-68
2023/08/05 12:48:54;;;;;;;11.50;6.93;;;23.40;99.90;;;;;;6237122;28;89004;-67
2023/08/05 12:51:56;;;;;;;10.30;6.15;;;23.40;99.90;;;;;;6234095;27;88009;-68
2023/08/05 12:54:58;;;;;;;7.63;6.13;;;23.50;99.90;;;;;;6238465;28;89094;-68
2023/08/05 12:58:01;;;;;;;8.73;5.80;;;23.40;99.90;;;;;;6234412;28;89334;-67
2023/08/05 13:01:03;;;;;;;8.00;5.53;;;23.40;99.90;;;;;;6216587;28;89167;-67
2023/08/05 13:04:05;;;;;;;8.77;6.40;;;23.40;99.90;;;;;;6231406;28;89204;-68
2023/08/05 13:07:07;;;;;;;12.20;6.15;;;23.50;99.90;;;;;;6244409;28;88549;-68
2023/08/05 13:10:10;;;;;;;8.88;5.93;;;23.40;99.90;;;;;;6232163;27;89057;-68
2023/08/05 13:13:13;;;;;;;10.48;6.20;;;23.40;99.90;;;;;;6240112;28;89012;-68
2023/08/05 13:16:16;;;;;;;9.48;5.97;;;23.40;99.90;;;;;;6240926;28;90215;-68
2023/08/05 13:19:20;;;;;;;7.65;5.70;;;23.40;99.90;;;;;;6233935;27;89223;-68
2023/08/05 13:22:22;;;;;;;8.45;5.95;;;23.40;99.90;;;;;;6226007;28;89134;-69
2023/08/05 13:25:24;;;;;;;7.75;5.45;;;23.40;99.90;;;;;;6223464;28;89333;-68
2023/08/05 13:28:28;;;;;;;11.95;5.50;;;23.40;99.90;;;;;;6225136;28;89285;-69
2023/08/05 13:31:29;;;;;;;8.52;5.18;;;23.40;99.90;;;;;;6231592;28;89154;-68
2023/08/05 13:34:32;;;;;;;8.00;4.82;;;23.40;99.90;;;;;;6232669;28;89421;-69
2023/08/05 13:37:35;;;;;;;8.57;5.03;;;23.40;99.90;;;;;;6231928;28;88422;-68
2023/08/05 13:40:37;;;;;;;7.40;4.97;;;23.40;99.90;;;;;;6231308;28;89214;-69
2023/08/05 13:43:42;;;;;;;6.50;4.70;;;23.40;99.90;;;;;;6226742;28;89338;-69
2023/08/05 13:46:44;;;;;;;9.05;4.82;;;23.40;99.90;;;;;;6231812;28;88987;-69
2023/08/05 13:49:47;;;;;;;6.60;4.68;;;23.40;99.90;;;;;;6234797;28;89230;-69
2023/08/05 13:52:49;;;;;;;5.30;4.18;;;23.40;99.90;;;;;;6232401;28;89387;-69
2023/08/05 13:55:55;;;;;;;7.63;4.40;;;23.40;99.90;;;;;;6231073;28;88037;-68
2023/08/05 13:58:59;;;;;;;6.30;4.13;;;23.40;99.90;;;;;;6230817;28;89299;-69
2023/08/05 14:02:02;;;;;;;5.78;4.15;;;23.40;99.90;;;;;;6245594;27;88990;-69
2023/08/05 14:05:05;;;;;;;6.18;4.05;;;23.40;99.90;;;;;;6238315;27;89361;-69
2023/08/05 14:08:08;;;;;;;5.30;3.85;;;23.40;99.90;;;;;;6234422;28;86902;-69
2023/08/05 14:11:10;;;;;;;5.10;3.90;;;23.40;99.90;;;;;;6222613;28;89046;-69
2023/08/05 14:14:14;;;;;;;6.88;4.28;;;23.40;99.90;;;;;;6239151;28;89233;-69
2023/08/05 14:17:16;;;;;;;5.30;3.97;;;23.40;99.90;;;;;;6237889;27;90240;-69
2023/08/05 14:20:19;;;;;;;5.63;3.92;;;23.40;99.90;;;;;;6233084;27;89259;-69
2023/08/05 14:23:21;;;;;;;7.60;4.47;;;23.40;99.90;;;;;;6224118;28;89199;-69
2023/08/05 14:26:23;;;;;;;4.10;3.70;;;23.40;99.90;;;;;;6226965;28;89113;-69
2023/08/05 14:29:27;;;;;;;5.22;3.67;;;23.40;99.90;;;;;;6230134;28;88873;-68
2023/08/05 14:32:29;;;;;;;4.70;3.95;;;23.40;99.90;;;;;;6223697;27;89085;-69
2023/08/05 14:35:32;;;;;;;5.97;4.28;;;23.40;99.90;;;;;;6225645;28;89395;-70
2023/08/05 14:38:34;;;;;;;6.15;4.20;;;23.40;99.90;;;;;;6235818;28;87291;-69
2023/08/05 14:41:36;;;;;;;4.82;4.13;;;23.40;99.90;;;;;;6234070;27;89060;-69
2023/08/05 14:44:42;;;;;;;5.78;4.45;;;23.40;99.90;;;;;;6231638;27;87903;-69
2023/08/05 14:47:44;;;;;;;5.18;4.05;;;23.40;99.90;;;;;;6242303;28;88893;-69
2023/08/05 14:50:46;;;;;;;6.53;4.60;;;23.40;99.90;;;;;;6228852;28;88923;-69
2023/08/05 14:53:48;;;;;;;5.47;4.20;;;23.40;99.90;;;;;;6234824;28;89369;-69
2023/08/05 14:56:50;;;;;;;4.35;3.95;;;23.40;99.90;;;;;;6229606;27;89663;-70
2023/08/05 14:59:54;;;;;;;5.03;4.50;;;23.40;99.90;;;;;;6225207;28;88488;-69
2023/08/05 15:02:56;;;;;;;6.30;4.85;;;23.30;99.90;;;;;;6231755;27;89077;-69
2023/08/05 15:05:58;;;;;;;5.10;4.20;;;23.30;99.90;;;;;;6242843;27;89482;-69
2023/08/05 15:09:00;;;;;;;5.13;4.35;;;23.40;99.90;;;;;;6242536;27;88307;-70
2023/08/05 15:12:02;;;;;;;4.50;4.10;;;23.30;99.90;;;;;;6229773;28;87992;-69
2023/08/05 15:15:07;;;;;;;4.65;3.88;;;23.40;99.90;;;;;;6228737;28;89073;-69
2023/08/05 15:18:09;;;;;;;4.90;4.30;;;23.40;99.90;;;;;;6228751;28;90076;-69
2023/08/05 15:21:11;;;;;;;5.22;4.72;;;23.40;99.90;;;;;;6240601;27;89347;-70
2023/08/05 15:24:13;;;;;;;4.45;4.05;;;23.40;99.90;;;;;;6229821;28;88796;-68
2023/08/05 15:27:15;;;;;;;5.50;4.38;;;23.40;99.90;;;;;;6217794;28;89372;-69
2023/08/05 15:30:19;;;;;;;6.30;4.95;;;23.40;99.90;;;;;;6239749;28;89107;-68
2023/08/05 15:33:22;;;;;;;8.27;5.50;;;23.40;99.90;;;;;;6228010;28;89088;-69
2023/08/05 15:36:24;;;;;;;6.20;4.93;;;23.40;99.90;;;;;;6234015;28;89193;-69
2023/08/05 15:39:29;;;;;;;4.70;4.30;;;23.40;99.90;;;;;;6235171;28;89563;-69
2023/08/05 15:42:31;;;;;;;4.85;4.22;;;23.40;99.90;;;;;;6219637;28;89033;-69
2023/08/05 15:45:37;;;;;;;5.57;4.80;;;23.40;99.90;;;;;;6246565;27;88687;-69
2023/08/05 15:48:40;;;;;;;5.93;4.70;;;23.30;99.90;;;;;;6251304;27;89129;-69
2023/08/05 15:51:43;;;;;;;5.63;4.55;;;23.40;99.90;;;;;;6251429;27;87984;-69
2023/08/05 15:54:45;;;;;;;5.25;4.75;;;23.30;99.90;;;;;;6237832;28;87948;-69
2023/08/05 15:57:49;;;;;;;7.82;5.10;;;23.30;99.90;;;;;;6234280;27;88118;-72
2023/08/05 16:01:01;;;;;;;14.40;8.75;;;23.40;99.90;;;;;;6230502;28;88289;-70
2023/08/05 16:04:05;;;;;;;1290.00;814.55;;;23.40;99.90;;;;;;6231906;28;88034;-69
2023/08/05 16:07:09;;;;;;;1999.90;999.90;;;23.60;99.90;;;;;;6222671;28;87911;-69
2023/08/05 16:10:13;;;;;;;1999.90;999.90;;;23.70;99.90;;;;;;6235377;27;87446;-67
2023/08/05 16:13:16;;;;;;;1867.30;970.23;;;23.90;99.90;;;;;;6227464;28;88066;-70
2023/08/05 16:16:22;;;;;;;1201.78;732.38;;;24.00;99.90;;;;;;6240341;28;87658;-70
2023/08/05 16:19:26;;;;;;;997.22;633.03;;;24.00;99.90;;;;;;6232722;28;88997;-70
2023/08/05 16:22:30;;;;;;;919.25;593.13;;;24.10;99.90;;;;;;6234213;28;87874;-68
2023/08/05 16:25:34;;;;;;;743.92;477.98;;;24.10;99.90;;;;;;6228946;27;88085;-69
2023/08/05 16:28:37;;;;;;;667.65;427.67;;;24.10;99.90;;;;;;6220172;28;88952;-69
2023/08/05 16:31:42;;;;;;;541.70;334.23;;;24.10;99.90;;;;;;6215742;28;88126;-69
2023/08/05 16:34:44;;;;;;;538.88;337.92;;;24.10;99.90;;;;;;6228058;28;88298;-68
2023/08/05 16:37:48;;;;;;;453.55;278.90;;;24.00;99.90;;;;;;6241817;28;87833;-68
2023/08/05 16:40:51;;;;;;;369.08;221.52;;;24.00;99.90;;;;;;6238787;28;87275;-68
2023/08/05 16:43:58;;;;;;;308.05;173.55;;;23.90;99.90;;;;;;6237128;27;88102;-68
2023/08/05 16:47:03;;;;;;;261.88;149.20;;;23.90;99.90;;;;;;6238320;27;88906;-69
2023/08/05 16:50:10;;;;;;;279.52;164.85;;;23.90;99.90;;;;;;6232033;27;89827;-69
2023/08/05 16:53:15;;;;;;;169.18;95.95;;;23.80;99.90;;;;;;6227775;28;88492;-69
2023/08/05 16:56:19;;;;;;;157.25;93.45;;;23.80;99.90;;;;;;6229071;28;88013;-69
2023/08/05 16:59:23;;;;;;;153.10;90.03;;;23.80;99.90;;;;;;6233399;28;88230;-68
2023/08/05 17:02:28;;;;;;;142.48;80.53;;;23.80;99.90;;;;;;6230354;28;87159;-69
2023/08/05 17:05:32;;;;;;;125.75;70.97;;;23.70;99.90;;;;;;6233333;27;87047;-69
2023/08/05 17:08:37;;;;;;;116.93;65.38;;;23.70;99.90;;;;;;6233760;27;88019;-67
2023/08/05 17:11:41;;;;;;;114.45;66.82;;;23.70;99.90;;;;;;6218368;28;87286;-67
2023/08/05 17:14:45;;;;;;;115.03;62.20;;;23.70;99.90;;;;;;6231696;28;88025;-66
2023/08/05 17:17:50;;;;;;;108.82;59.50;;;23.70;99.90;;;;;;6227844;28;88644;-66
2023/08/05 17:20:56;;;;;;;99.20;54.85;;;23.60;99.90;;;;;;6227091;28;88963;-67
2023/08/05 17:24:00;;;;;;;93.35;52.80;;;23.60;99.90;;;;;;6214150;28;88205;-67
2023/08/05 17:27:03;;;;;;;83.45;49.13;;;23.60;99.90;;;;;;6217270;28;87987;-67
2023/08/05 17:30:07;;;;;;;73.57;44.15;;;23.60;99.90;;;;;;6229649;27;88285;-67
2023/08/05 17:33:12;;;;;;;71.15;41.28;;;23.60;99.90;;;;;;6235838;27;88104;-67
2023/08/05 17:36:16;;;;;;;66.53;40.72;;;23.60;99.90;;;;;;6230862;28;88364;-67
2023/08/05 17:39:19;;;;;;;72.22;44.72;;;23.60;99.90;;;;;;6214117;28;88017;-66
2023/08/05 17:42:23;;;;;;;57.95;36.60;;;23.60;99.90;;;;;;6224672;28;87163;-66
2023/08/05 17:45:27;;;;;;;67.47;40.95;;;23.60;99.90;;;;;;6235303;28;86984;-66
2023/08/05 17:48:32;;;;;;;68.72;41.25;;;23.70;99.90;;;;;;6228030;27;88229;-66
2023/08/05 17:51:36;;;;;;;61.60;39.95;;;23.60;99.90;;;;;;6226507;28;89051;-67
2023/08/05 17:54:40;;;;;;;60.28;37.15;;;23.60;99.90;;;;;;6236427;28;87878;-66
2023/08/05 17:57:43;;;;;;;59.30;37.42;;;23.70;99.90;;;;;;6239305;27;88221;-66
2023/08/05 18:00:47;;;;;;;57.15;35.03;;;23.70;99.90;;;;;;6234461;27;88011;-66
2023/08/05 18:03:52;;;;;;;55.72;34.35;;;23.80;99.90;;;;;;6226545;28;88961;-67
2023/08/05 18:06:56;;;;;;;52.17;32.65;;;23.90;99.90;;;;;;6234092;28;89226;-67
2023/08/05 18:10:00;;;;;;;45.75;29.15;;;23.90;99.90;;;;;;6228103;28;87996;-67
2023/08/05 18:13:04;;;;;;;45.50;29.08;;;23.90;99.90;;;;;;6228130;28;87156;-67
2023/08/05 18:16:08;;;;;;;45.88;29.05;;;24.00;99.90;;;;;;6228321;28;88069;-66
2023/08/05 18:19:13;;;;;;;38.85;25.25;;;23.90;99.90;;;;;;6227083;27;87960;-69
2023/08/05 18:22:17;;;;;;;39.65;24.85;;;24.00;99.90;;;;;;6231830;28;89245;-69
2023/08/05 18:25:21;;;;;;;35.97;23.48;;;24.00;99.90;;;;;;6242649;27;87226;-69
2023/08/05 18:28:24;;;;;;;37.50;23.60;;;23.90;99.90;;;;;;6217371;28;88010;-68
2023/08/05 18:31:27;;;;;;;35.22;22.38;;;23.90;99.90;;;;;;6228265;27;88135;-69
2023/08/05 18:34:32;;;;;;;39.08;26.17;;;23.90;99.90;;;;;;6221923;28;88038;-70
2023/08/05 18:37:36;;;;;;;66.40;48.60;;;23.90;99.90;;;;;;6225532;27;87918;-68
2023/08/05 18:40:39;;;;;;;34.65;22.15;;;23.90;99.90;;;;;;6244272;28;87052;-68
2023/08/05 18:43:43;;;;;;;43.22;29.98;;;23.80;99.90;;;;;;6232715;27;87899;-66
2023/08/05 18:46:46;;;;;;;76.05;58.67;;;23.80;99.90;;;;;;6228264;28;88246;-66
2023/08/05 18:49:51;;;;;;;38.92;28.10;;;23.80;99.90;;;;;;6233007;28;88036;-66
2023/08/05 18:52:55;;;;;;;33.75;24.73;;;23.80;99.90;;;;;;6235279;27;89776;-67
2023/08/05 18:55:58;;;;;;;40.65;28.35;;;23.80;99.90;;;;;;6230268;28;87944;-68
2023/08/05 18:59:01;;;;;;;27.48;18.65;;;23.70;99.90;;;;;;6239336;27;88211;-69
2023/08/05 19:02:27;;;;;;;38.67;27.60;;;23.70;99.90;;;;;;6220397;27;88071;-68
2023/08/05 19:05:32;;;;;;;44.20;28.80;;;23.70;99.90;;;;;;6224869;28;88649;-69
2023/08/05 19:08:35;;;;;;;29.75;20.40;;;23.70;99.90;;;;;;6228643;28;88248;-69
2023/08/05 19:11:39;;;;;;;39.78;28.92;;;23.70;99.90;;;;;;6238769;27;88023;-68
2023/08/05 19:14:43;;;;;;;38.67;29.20;;;23.70;99.90;;;;;;6242431;28;87281;-69
2023/08/05 19:17:47;;;;;;;24.88;17.77;;;23.70;99.90;;;;;;6239655;27;89270;-68
2023/08/05 19:20:53;;;;;;;33.05;24.42;;;23.70;99.90;;;;;;6233327;28;87447;-69
2023/08/05 19:23:57;;;;;;;25.10;17.50;;;23.70;99.90;;;;;;6233802;28;89569;-69
2023/08/05 19:27:01;;;;;;;24.52;16.13;;;23.70;99.90;;;;;;6234345;28;87931;-69
2023/08/05 19:30:05;;;;;;;24.05;16.55;;;23.70;99.90;;;;;;6240462;28;87959;-68
2023/08/05 19:33:09;;;;;;;23.88;17.63;;;23.70;99.90;;;;;;6238814;28;88636;-68
2023/08/05 19:36:16;;;;;;;37.65;27.48;;;23.60;99.90;;;;;;6231935;28;88635;-68
2023/08/05 19:39:19;;;;;;;39.60;29.10;;;23.60;99.90;;;;;;6240698;28;87995;-68
2023/08/05 19:42:24;;;;;;;20.85;15.13;;;23.60;99.90;;;;;;6233383;28;89724;-68
2023/08/05 19:45:28;;;;;;;26.45;19.25;;;23.60;99.90;;;;;;6232445;28;87358;-68
2023/08/05 19:48:31;;;;;;;24.08;16.98;;;23.60;99.90;;;;;;6246341;28;88040;-68